Time;durP1;ratioP1;P1;durP2;ratioP2;P2;SDS_P1;SDS_P2;PMS_P1;PMS_P2;Temp;Humidity;BMP_temperature;BMP_pressure;BME280_temperature;BME280_humidity;BME280_pressure;Samples;Min_cycle;Max_cycle;Signal;HPM_P1;HPM_P2
2023/06/27 00:06:24;;;;;;;7.75;3.17;;;17.40;1.00;;;;;;20704316;28;20056;-40
2023/06/27 00:16:46;;;;;;;8.55;3.10;;;17.40;1.00;;;;;;20700902;28;20084;-40
2023/06/27 00:27:07;;;;;;;6.97;3.35;;;17.50;1.00;;;;;;20702630;28;20398;-41
2023/06/27 00:37:29;;;;;;;7.32;2.67;;;17.50;1.00;;;;;;20698734;28;20038;-40
2023/06/27 00:47:53;;;;;;;4.40;3.08;;;17.50;1.00;;;;;;20701552;28;20048;-41
2023/06/27 00:58:15;;;;;;;7.40;3.20;;;17.50;1.00;;;;;;20689823;28;20121;-40
2023/06/27 01:08:42;;;;;;;6.22;2.80;;;17.50;1.00;;;;;;20695700;28;20132;-41
2023/06/27 01:19:07;;;;;;;7.53;3.67;;;17.40;1.00;;;;;;20686993;28;20156;-40
2023/06/27 01:29:32;;;;;;;10.05;3.45;;;17.30;1.00;;;;;;20695817;28;20125;-41
2023/06/27 01:40:00;;;;;;;9.05;3.42;;;17.10;1.00;;;;;;20691593;28;20072;-41
2023/06/27 01:50:21;;;;;;;9.07;3.92;;;17.00;1.00;;;;;;20698125;28;20092;-40
2023/06/27 02:00:43;;;;;;;6.80;3.05;;;17.10;1.00;;;;;;20693625;28;20264;-41
2023/06/27 02:11:04;;;;;;;9.93;3.67;;;17.10;1.00;;;;;;20694465;28;20141;-41
2023/06/27 02:21:25;;;;;;;10.45;3.97;;;17.00;1.00;;;;;;20694411;28;20041;-41
2023/06/27 02:31:47;;;;;;;12.00;3.75;;;17.00;1.00;;;;;;20694837;28;20160;-41
2023/06/27 02:42:08;;;;;;;13.48;4.07;;;17.10;1.00;;;;;;20710999;28;20052;-41
2023/06/27 02:52:29;;;;;;;10.95;3.78;;;16.90;1.00;;;;;;20672323;28;20065;-41
2023/06/27 03:02:51;;;;;;;10.77;3.78;;;16.90;1.00;;;;;;20704496;28;20788;-40
2023/06/27 03:13:12;;;;;;;14.00;4.38;;;16.90;1.00;;;;;;20708656;28;20089;-41
2023/06/27 03:23:33;;;;;;;10.35;4.00;;;16.80;1.00;;;;;;20708686;28;20435;-40
2023/06/27 03:33:56;;;;;;;8.77;3.80;;;16.90;1.00;;;;;;20696555;28;20038;-41
2023/06/27 03:44:18;;;;;;;12.70;4.65;;;16.80;1.00;;;;;;20702300;28;20321;-41
2023/06/27 03:54:39;;;;;;;10.02;4.38;;;16.70;1.00;;;;;;20703472;28;20148;-40
2023/06/27 04:05:00;;;;;;;12.68;4.68;;;16.70;3.60;;;;;;20702686;28;20128;-41
2023/06/27 04:15:22;;;;;;;9.98;3.80;;;16.70;12.10;;;;;;20699250;28;20061;-41
2023/06/27 04:25:44;;;;;;;12.10;5.00;;;16.80;10.20;;;;;;20701185;28;20084;-40
2023/06/27 04:36:06;;;;;;;21.23;5.15;;;16.90;1.80;;;;;;20698339;28;20092;-41
2023/06/27 04:46:28;;;;;;;13.38;4.75;;;17.00;1.00;;;;;;20694067;28;20045;-41
2023/06/27 04:56:50;;;;;;;11.73;4.75;;;17.10;1.00;;;;;;20688830;28;20130;-41
2023/06/27 05:07:11;;;;;;;13.27;4.63;;;17.00;1.00;;;;;;20689178;28;20620;-41
2023/06/27 05:17:32;;;;;;;9.15;3.65;;;17.00;1.00;;;;;;20692714;28;20065;-41
2023/06/27 05:27:54;;;;;;;9.50;4.25;;;17.00;1.00;;;;;;20683912;28;20044;-40
2023/06/27 05:38:16;;;;;;;9.90;4.60;;;17.00;1.00;;;;;;20691080;28;20081;-40
2023/06/27 05:48:37;;;;;;;15.20;5.00;;;17.10;1.00;;;;;;20699022;28;20038;-40
2023/06/27 05:58:58;;;;;;;11.32;4.28;;;17.30;1.00;;;;;;20698485;28;20041;-41
2023/06/27 06:09:20;;;;;;;10.85;4.00;;;17.60;1.00;;;;;;20692910;28;20087;-40
2023/06/27 06:19:41;;;;;;;9.32;3.80;;;17.70;1.00;;;;;;20694424;28;20816;-40
2023/06/27 06:30:03;;;;;;;13.15;6.65;;;18.10;1.00;;;;;;20694747;28;20084;-40
2023/06/27 06:40:24;;;;;;;7.00;2.63;;;18.50;1.00;;;;;;20700744;28;20077;-41
2023/06/27 06:50:47;;;;;;;8.63;1.77;;;18.80;1.00;;;;;;20697160;28;20124;-41
2023/06/27 07:01:08;;;;;;;4.05;0.88;;;19.10;1.00;;;;;;20693696;28;20068;-41
2023/06/27 07:11:29;;;;;;;10.18;5.95;;;19.30;1.00;;;;;;20687731;28;20110;-40
2023/06/27 07:21:51;;;;;;;5.72;1.50;;;19.40;1.00;;;;;;20694735;28;20057;-40
2023/06/27 07:32:13;;;;;;;5.05;1.10;;;19.60;1.00;;;;;;20705952;28;20141;-41
2023/06/27 07:42:34;;;;;;;6.93;2.08;;;19.80;1.00;;;;;;20714279;28;20080;-41
2023/06/27 07:52:56;;;;;;;3.10;0.98;;;19.90;1.00;;;;;;20716426;28;20077;-41
2023/06/27 08:03:18;;;;;;;3.70;0.70;;;20.20;1.00;;;;;;20710466;28;20052;-41
2023/06/27 08:13:41;;;;;;;3.55;1.10;;;20.40;1.00;;;;;;20717763;28;20152;-42
2023/06/27 08:24:03;;;;;;;3.97;0.80;;;20.50;1.00;;;;;;20710564;28;20485;-42
2023/06/27 08:34:24;;;;;;;3.83;0.75;;;20.40;1.00;;;;;;20706729;28;20065;-42
2023/06/27 08:44:46;;;;;;;4.10;1.17;;;20.60;1.00;;;;;;20711730;28;20045;-41
2023/06/27 08:55:13;;;;;;;3.30;0.60;;;20.50;1.00;;;;;;20708269;28;21109;-41
2023/06/27 09:05:34;;;;;;;3.75;0.88;;;20.40;1.00;;;;;;20702682;28;20038;-41
2023/06/27 09:15:56;;;;;;;3.25;1.08;;;20.40;1.00;;;;;;20704638;28;20038;-41
2023/06/27 09:26:17;;;;;;;5.47;1.10;;;20.30;1.00;;;;;;20711064;28;20061;-41
2023/06/27 09:36:40;;;;;;;2.42;0.70;;;20.30;1.00;;;;;;20705006;28;20061;-41
2023/06/27 09:47:01;;;;;;;4.20;0.70;;;20.30;1.00;;;;;;20705414;28;20728;-41
2023/06/27 09:57:24;;;;;;;6.22;2.50;;;20.10;1.00;;;;;;20703974;28;20029;-39
2023/06/27 10:07:46;;;;;;;3.08;0.77;;;20.30;1.00;;;;;;20707643;28;20123;-40
2023/06/27 10:18:08;;;;;;;7.50;4.18;;;20.60;1.00;;;;;;20702514;28;20141;-40
2023/06/27 10:28:33;;;;;;;5.13;0.93;;;20.80;1.00;;;;;;20712365;28;20081;-40
2023/06/27 10:38:55;;;;;;;3.15;1.30;;;20.80;1.00;;;;;;20708439;28;20791;-40
2023/06/27 10:49:16;;;;;;;3.63;0.90;;;21.20;1.00;;;;;;20704265;28;21052;-40
2023/06/27 10:59:38;;;;;;;3.88;0.88;;;21.40;1.00;;;;;;20717789;28;20136;-40
2023/06/27 11:10:00;;;;;;;2.88;0.80;;;21.70;1.00;;;;;;20720584;28;20503;-40
2023/06/27 11:20:21;;;;;;;6.45;0.88;;;21.80;1.00;;;;;;20719422;28;20048;-40
2023/06/27 11:30:43;;;;;;;1.77;0.57;;;22.00;1.00;;;;;;20718374;28;20409;-40
2023/06/27 11:41:05;;;;;;;4.07;1.00;;;21.70;1.00;;;;;;20708753;28;20112;-40
2023/06/27 11:51:40;;;;;;;2.38;0.70;;;22.00;1.00;;;;;;20719151;28;20169;-41
2023/06/27 12:02:02;;;;;;;2.40;0.82;;;22.20;1.00;;;;;;20715559;28;20075;-40
2023/06/27 12:12:23;;;;;;;3.47;0.73;;;22.50;1.00;;;;;;20714493;28;20041;-41
2023/06/27 12:22:44;;;;;;;6.55;1.00;;;22.80;1.00;;;;;;20713602;28;21898;-41
2023/06/27 12:33:08;;;;;;;3.35;0.70;;;23.10;1.00;;;;;;20715287;28;20085;-41
2023/06/27 12:43:29;;;;;;;2.58;0.65;;;23.10;1.00;;;;;;20711707;28;20523;-41
2023/06/27 12:53:51;;;;;;;3.03;1.00;;;22.80;1.00;;;;;;20711858;28;20076;-41
2023/06/27 13:04:12;;;;;;;5.50;2.55;;;22.70;1.00;;;;;;20711276;28;20520;-40
2023/06/27 13:14:34;;;;;;;3.72;1.38;;;22.70;1.00;;;;;;20708191;28;20060;-41
2023/06/27 13:24:56;;;;;;;3.58;0.98;;;22.60;1.00;;;;;;20703701;28;20096;-41
2023/06/27 13:35:19;;;;;;;2.75;0.70;;;22.60;1.00;;;;;;20706415;28;20045;-41
2023/06/27 13:45:41;;;;;;;2.38;0.80;;;22.80;1.00;;;;;;20713632;28;20068;-41
2023/06/27 13:56:03;;;;;;;3.03;0.73;;;22.70;1.00;;;;;;20716243;28;20041;-41
2023/06/27 14:06:25;;;;;;;6.18;1.20;;;22.80;1.00;;;;;;20699726;28;20068;-41
2023/06/27 14:16:47;;;;;;;7.07;1.08;;;22.90;1.00;;;;;;20708198;28;20410;-41
2023/06/27 14:27:10;;;;;;;5.60;1.00;;;22.50;1.00;;;;;;20690069;28;20150;-41
2023/06/27 14:37:31;;;;;;;4.60;0.90;;;22.00;1.00;;;;;;20716659;28;20416;-41
2023/06/27 14:47:54;;;;;;;3.15;0.93;;;21.80;1.00;;;;;;20707498;28;20528;-42
2023/06/27 14:58:15;;;;;;;3.17;1.30;;;21.60;1.00;;;;;;20706235;28;20100;-42
2023/06/27 15:08:37;;;;;;;3.38;0.93;;;21.90;1.00;;;;;;20714498;28;20064;-40
2023/06/27 15:18:58;;;;;;;3.58;1.00;;;22.10;1.00;;;;;;20704891;28;20045;-40
2023/06/27 15:29:20;;;;;;;4.70;1.10;;;22.10;1.00;;;;;;20699465;28;20524;-40
2023/06/27 15:39:41;;;;;;;4.70;1.30;;;21.90;1.00;;;;;;20699087;28;20074;-40
2023/06/27 15:50:04;;;;;;;3.63;0.82;;;21.80;1.00;;;;;;20715984;28;20424;-40
2023/06/27 16:00:26;;;;;;;3.53;0.80;;;22.00;1.00;;;;;;20713421;28;20841;-40
2023/06/27 16:10:47;;;;;;;3.95;1.00;;;21.80;1.00;;;;;;20714779;28;20057;-40
2023/06/27 16:21:08;;;;;;;5.00;1.20;;;21.60;1.00;;;;;;20700902;28;20042;-40
2023/06/27 16:31:30;;;;;;;4.95;1.00;;;21.40;1.00;;;;;;20695147;28;20224;-40
2023/06/27 16:41:51;;;;;;;4.32;1.00;;;21.20;1.00;;;;;;20694645;28;20046;-40
2023/06/27 16:52:12;;;;;;;4.78;0.75;;;21.10;1.00;;;;;;20693626;28;20470;-40
2023/06/27 17:02:34;;;;;;;3.60;0.90;;;21.10;1.00;;;;;;20696987;28;20716;-40
2023/06/27 17:12:55;;;;;;;4.05;0.90;;;21.00;1.00;;;;;;20686598;28;20652;-40
2023/06/27 17:23:17;;;;;;;3.20;1.10;;;20.70;1.00;;;;;;20690905;28;20072;-41
2023/06/27 17:33:38;;;;;;;4.65;0.93;;;20.60;1.00;;;;;;20693318;28;20052;-40
2023/06/27 17:43:59;;;;;;;6.25;0.90;;;20.40;1.00;;;;;;20690163;28;20520;-40
2023/06/27 17:54:20;;;;;;;3.70;0.90;;;20.20;1.00;;;;;;20694032;28;20064;-40
2023/06/27 18:04:42;;;;;;;5.10;0.90;;;20.00;1.00;;;;;;20698792;28;20041;-40
2023/06/27 18:15:04;;;;;;;4.40;0.95;;;19.90;1.00;;;;;;20682127;28;20132;-40
2023/06/27 18:25:27;;;;;;;4.93;1.13;;;19.90;1.00;;;;;;20677898;28;20071;-40
2023/06/27 18:35:48;;;;;;;4.90;1.23;;;19.80;1.00;;;;;;20683410;28;20072;-41
2023/06/27 18:46:10;;;;;;;3.28;1.00;;;19.70;1.00;;;;;;20692176;28;20124;-40
2023/06/27 18:56:31;;;;;;;2.28;0.90;;;19.60;1.00;;;;;;20696913;28;20033;-40
2023/06/27 19:06:55;;;;;;;4.35;1.13;;;19.50;1.00;;;;;;20691972;28;20049;-40
2023/06/27 19:17:16;;;;;;;4.68;0.95;;;19.30;1.00;;;;;;20694053;28;20053;-39
2023/06/27 19:27:38;;;;;;;3.58;1.00;;;19.30;1.00;;;;;;20702423;28;20076;-39
2023/06/27 19:37:59;;;;;;;5.95;1.42;;;19.00;1.00;;;;;;20702693;28;20099;-39
2023/06/27 19:48:20;;;;;;;4.53;1.10;;;18.80;1.00;;;;;;20702108;28;20069;-39
2023/06/27 19:58:42;;;;;;;10.27;2.17;;;18.60;1.00;;;;;;20700277;28;20065;-39
2023/06/27 20:09:04;;;;;;;4.18;1.50;;;18.30;1.00;;;;;;20703787;28;20037;-40
2023/06/27 20:19:25;;;;;;;4.80;2.13;;;18.20;1.00;;;;;;20707581;28;20124;-40
2023/06/27 20:29:46;;;;;;;4.93;1.90;;;17.70;1.00;;;;;;20702865;28;20532;-40
2023/06/27 20:40:08;;;;;;;5.05;1.95;;;17.20;1.00;;;;;;20701400;28;20076;-40
2023/06/27 20:50:29;;;;;;;7.18;2.03;;;17.00;1.00;;;;;;20699407;28;20708;-39
2023/06/27 21:00:51;;;;;;;3.20;1.70;;;16.90;1.00;;;;;;20690329;28;20041;-39
2023/06/27 21:11:14;;;;;;;5.85;2.20;;;16.70;1.00;;;;;;20694467;28;20070;-39
2023/06/27 21:21:35;;;;;;;6.88;2.58;;;16.60;6.90;;;;;;20702677;28;20052;-39
2023/06/27 21:31:56;;;;;;;6.28;2.30;;;16.70;6.30;;;;;;20695745;28;20073;-39
2023/06/27 21:42:18;;;;;;;6.82;2.45;;;16.50;1.00;;;;;;20703169;28;20535;-40
2023/06/27 21:52:39;;;;;;;7.93;2.50;;;16.40;33.20;;;;;;20699486;28;20077;-40
2023/06/27 22:03:00;;;;;;;7.43;2.13;;;16.30;33.30;;;;;;20700382;28;20421;-39
2023/06/27 22:13:22;;;;;;;5.10;2.60;;;16.10;26.80;;;;;;20694788;28;20069;-41
2023/06/27 22:23:43;;;;;;;7.25;3.30;;;16.00;72.60;;;;;;20696359;28;20083;-41
2023/06/27 22:34:04;;;;;;;10.40;3.22;;;16.00;75.50;;;;;;20699378;28;20038;-40
2023/06/27 22:44:26;;;;;;;6.00;2.95;;;16.10;64.00;;;;;;20692783;28;21602;-40
2023/06/27 22:54:47;;;;;;;8.18;3.20;;;15.90;29.80;;;;;;20698801;28;20074;-40
2023/06/27 23:05:08;;;;;;;6.95;3.10;;;15.90;70.30;;;;;;20702472;28;20056;-41
2023/06/27 23:15:30;;;;;;;5.13;2.13;;;15.80;58.70;;;;;;20685847;28;20422;-41
2023/06/27 23:25:52;;;;;;;6.45;1.98;;;15.70;80.50;;;;;;20706492;28;20052;-41
2023/06/27 23:36:13;;;;;;;3.58;1.77;;;15.70;94.70;;;;;;20696650;28;20073;-41
2023/06/27 23:46:34;;;;;;;3.30;1.75;;;15.70;92.40;;;;;;20716061;28;20128;-41
2023/06/27 23:56:56;;;;;;;5.53;2.03;;;15.70;94.10;;;;;;20706413;28;20134;-41
